sensor_id;sensor_type;location;lat;lon;timestamp;P1;durP1;ratioP1;P2;durP2;ratioP2
45033;SDS011;30771;47.988;-4.186;2023-06-10T06:01:13;12.50;;;6.72;;
45033;SDS011;30771;47.988;-4.186;2023-06-10T06:03:38;11.82;;;8.07;;
45033;SDS011;30771;47.988;-4.186;2023-06-10T06:06:03;12.82;;;8.02;;
45033;SDS011;30771;47.988;-4.186;2023-06-10T06:08:29;13.13;;;6.97;;
45033;SDS011;30771;47.988;-4.186;2023-06-10T06:10:55;13.55;;;7.28;;
45033;SDS011;30771;47.988;-4.186;2023-06-10T06:13:20;11.35;;;6.72;;
45033;SDS011;30771;47.988;-4.186;2023-06-10T06:15:45;10.70;;;6.82;;
45033;SDS011;30771;47.988;-4.186;2023-06-10T06:18:10;11.43;;;6.45;;
45033;SDS011;30771;47.988;-4.186;2023-06-10T06:20:36;9.23;;;5.22;;
45033;SDS011;30771;47.988;-4.186;2023-06-10T06:23:01;11.18;;;5.70;;
45033;SDS011;30771;47.988;-4.186;2023-06-10T06:25:26;12.43;;;6.03;;
45033;SDS011;30771;47.988;-4.186;2023-06-10T06:27:52;8.63;;;4.70;;
45033;SDS011;30771;47.988;-4.186;2023-06-10T06:30:17;10.32;;;4.60;;
45033;SDS011;30771;47.988;-4.186;2023-06-10T06:32:42;9.63;;;4.20;;
45033;SDS011;30771;47.988;-4.186;2023-06-10T06:35:08;8.57;;;3.78;;
45033;SDS011;30771;47.988;-4.186;2023-06-10T06:37:33;5.82;;;3.88;;
45033;SDS011;30771;47.988;-4.186;2023-06-10T06:40:01;9.23;;;4.40;;
45033;SDS011;30771;47.988;-4.186;2023-06-10T06:42:27;8.35;;;4.00;;
45033;SDS011;30771;47.988;-4.186;2023-06-10T06:44:52;7.57;;;3.28;;
45033;SDS011;30771;47.988;-4.186;2023-06-10T06:47:17;6.82;;;3.45;;
45033;SDS011;30771;47.988;-4.186;2023-06-10T06:49:43;6.10;;;3.13;;
45033;SDS011;30771;47.988;-4.186;2023-06-10T06:52:08;7.22;;;2.85;;
45033;SDS011;30771;47.988;-4.186;2023-06-10T06:54:33;7.80;;;3.38;;
45033;SDS011;30771;47.988;-4.186;2023-06-10T06:56:58;9.48;;;3.13;;
45033;SDS011;30771;47.988;-4.186;2023-06-10T06:59:24;7.80;;;3.13;;
45033;SDS011;30771;47.988;-4.186;2023-06-10T07:01:49;8.52;;;3.40;;
45033;SDS011;30771;47.988;-4.186;2023-06-10T07:04:15;7.40;;;2.63;;
45033;SDS011;30771;47.988;-4.186;2023-06-10T07:06:40;13.40;;;3.80;;
45033;SDS011;30771;47.988;-4.186;2023-06-10T07:09:06;6.95;;;2.95;;
45033;SDS011;30771;47.988;-4.186;2023-06-10T07:11:32;9.10;;;3.35;;
45033;SDS011;30771;47.988;-4.186;2023-06-10T07:13:57;11.75;;;3.38;;
45033;SDS011;30771;47.988;-4.186;2023-06-10T07:16:23;8.90;;;3.40;;
45033;SDS011;30771;47.988;-4.186;2023-06-10T07:18:48;9.10;;;3.10;;
45033;SDS011;30771;47.988;-4.186;2023-06-10T07:21:13;10.38;;;3.10;;
45033;SDS011;30771;47.988;-4.186;2023-06-10T07:23:41;8.55;;;2.83;;
45033;SDS011;30771;47.988;-4.186;2023-06-10T07:26:07;8.40;;;2.80;;
45033;SDS011;30771;47.988;-4.186;2023-06-10T07:28:32;11.45;;;3.13;;
45033;SDS011;30771;47.988;-4.186;2023-06-10T07:30:58;9.75;;;3.10;;
45033;SDS011;30771;47.988;-4.186;2023-06-10T07:33:23;8.93;;;2.72;;
45033;SDS011;30771;47.988;-4.186;2023-06-10T07:35:48;9.57;;;2.53;;
45033;SDS011;30771;47.988;-4.186;2023-06-10T07:38:14;7.03;;;2.30;;
45033;SDS011;30771;47.988;-4.186;2023-06-10T07:40:39;11.13;;;2.65;;
45033;SDS011;30771;47.988;-4.186;2023-06-10T07:43:04;9.38;;;2.70;;
45033;SDS011;30771;47.988;-4.186;2023-06-10T07:45:29;10.25;;;2.47;;
45033;SDS011;30771;47.988;-4.186;2023-06-10T07:47:55;7.68;;;2.38;;
45033;SDS011;30771;47.988;-4.186;2023-06-10T07:50:20;7.15;;;2.00;;
45033;SDS011;30771;47.988;-4.186;2023-06-10T07:52:45;6.75;;;2.40;;
45033;SDS011;30771;47.988;-4.186;2023-06-10T07:55:11;6.25;;;2.40;;
45033;SDS011;30771;47.988;-4.186;2023-06-10T07:57:36;5.20;;;2.22;;
45033;SDS011;30771;47.988;-4.186;2023-06-10T08:00:02;5.82;;;2.33;;
45033;SDS011;30771;47.988;-4.186;2023-06-10T08:02:28;4.32;;;2.17;;
45033;SDS011;30771;47.988;-4.186;2023-06-10T08:04:53;6.55;;;2.38;;
45033;SDS011;30771;47.988;-4.186;2023-06-10T08:07:18;5.25;;;2.53;;
45033;SDS011;30771;47.988;-4.186;2023-06-10T08:09:44;9.07;;;2.70;;
45033;SDS011;30771;47.988;-4.186;2023-06-10T08:12:09;8.50;;;2.55;;
45033;SDS011;30771;47.988;-4.186;2023-06-10T08:14:35;7.55;;;2.10;;
45033;SDS011;30771;47.988;-4.186;2023-06-10T08:17:00;5.57;;;2.10;;
45033;SDS011;30771;47.988;-4.186;2023-06-10T08:19:25;4.07;;;1.77;;
45033;SDS011;30771;47.988;-4.186;2023-06-10T08:21:50;4.70;;;1.73;;
45033;SDS011;30771;47.988;-4.186;2023-06-10T08:24:16;6.28;;;1.98;;
45033;SDS011;30771;47.988;-4.186;2023-06-10T08:26:41;7.18;;;2.10;;
45033;SDS011;30771;47.988;-4.186;2023-06-10T08:29:06;5.47;;;2.40;;
45033;SDS011;30771;47.988;-4.186;2023-06-10T08:31:31;8.15;;;2.63;;
45033;SDS011;30771;47.988;-4.186;2023-06-10T08:33:57;6.82;;;2.40;;
45033;SDS011;30771;47.988;-4.186;2023-06-10T08:36:22;5.63;;;2.25;;
45033;SDS011;30771;47.988;-4.186;2023-06-10T08:38:47;5.88;;;2.28;;
45033;SDS011;30771;47.988;-4.186;2023-06-10T08:41:14;5.57;;;2.30;;
45033;SDS011;30771;47.988;-4.186;2023-06-10T08:43:44;5.43;;;2.00;;
45033;SDS011;30771;47.988;-4.186;2023-06-10T08:46:13;4.15;;;1.80;;
45033;SDS011;30771;47.988;-4.186;2023-06-10T08:48:41;4.68;;;1.58;;
45033;SDS011;30771;47.988;-4.186;2023-06-10T08:53:34;4.65;;;1.83;;
45033;SDS011;30771;47.988;-4.186;2023-06-10T08:58:29;9.05;;;1.70;;
45033;SDS011;30771;47.988;-4.186;2023-06-10T09:00:54;5.90;;;1.83;;
45033;SDS011;30771;47.988;-4.186;2023-06-10T09:03:20;4.18;;;1.30;;
45033;SDS011;30771;47.988;-4.186;2023-06-10T09:05:46;5.22;;;1.52;;
45033;SDS011;30771;47.988;-4.186;2023-06-10T09:08:13;6.53;;;1.75;;
45033;SDS011;30771;47.988;-4.186;2023-06-10T09:10:40;2.90;;;1.63;;
45033;SDS011;30771;47.988;-4.186;2023-06-10T09:13:05;3.35;;;1.40;;
45033;SDS011;30771;47.988;-4.186;2023-06-10T09:15:31;3.40;;;1.25;;
45033;SDS011;30771;47.988;-4.186;2023-06-10T09:17:56;5.45;;;1.67;;
45033;SDS011;30771;47.988;-4.186;2023-06-10T09:20:22;5.10;;;1.40;;
45033;SDS011;30771;47.988;-4.186;2023-06-10T09:22:48;5.50;;;1.23;;
45033;SDS011;30771;47.988;-4.186;2023-06-10T09:25:13;3.13;;;1.00;;
45033;SDS011;30771;47.988;-4.186;2023-06-10T09:27:48;4.25;;;1.33;;
45033;SDS011;30771;47.988;-4.186;2023-06-10T09:30:25;7.00;;;1.50;;
45033;SDS011;30771;47.988;-4.186;2023-06-10T09:32:54;5.20;;;1.25;;
45033;SDS011;30771;47.988;-4.186;2023-06-10T09:35:21;6.38;;;1.67;;
45033;SDS011;30771;47.988;-4.186;2023-06-10T09:37:46;4.68;;;1.40;;
45033;SDS011;30771;47.988;-4.186;2023-06-10T09:40:16;7.15;;;1.40;;
45033;SDS011;30771;47.988;-4.186;2023-06-10T09:42:42;3.00;;;1.17;;
45033;SDS011;30771;47.988;-4.186;2023-06-10T09:45:07;4.63;;;1.20;;
45033;SDS011;30771;47.988;-4.186;2023-06-10T09:47:32;3.95;;;1.20;;
45033;SDS011;30771;47.988;-4.186;2023-06-10T09:49:58;2.45;;;1.10;;
45033;SDS011;30771;47.988;-4.186;2023-06-10T09:52:24;4.22;;;1.40;;
45033;SDS011;30771;47.988;-4.186;2023-06-10T09:54:50;3.22;;;1.30;;
45033;SDS011;30771;47.988;-4.186;2023-06-10T09:57:16;2.92;;;1.25;;
45033;SDS011;30771;47.988;-4.186;2023-06-10T09:59:41;4.22;;;1.30;;
45033;SDS011;30771;47.988;-4.186;2023-06-10T10:02:09;6.65;;;1.83;;
45033;SDS011;30771;47.988;-4.186;2023-06-10T10:04:38;5.50;;;1.40;;
45033;SDS011;30771;47.988;-4.186;2023-06-10T10:07:04;5.22;;;1.23;;
45033;SDS011;30771;47.988;-4.186;2023-06-10T10:09:29;3.08;;;1.40;;
45033;SDS011;30771;47.988;-4.186;2023-06-10T10:11:54;4.05;;;1.30;;
45033;SDS011;30771;47.988;-4.186;2023-06-10T10:14:20;5.07;;;1.35;;
45033;SDS011;30771;47.988;-4.186;2023-06-10T10:16:47;4.88;;;1.10;;
45033;SDS011;30771;47.988;-4.186;2023-06-10T10:19:18;5.28;;;1.60;;
45033;SDS011;30771;47.988;-4.186;2023-06-10T10:21:50;4.32;;;1.20;;
45033;SDS011;30771;47.988;-4.186;2023-06-10T10:24:20;3.70;;;1.20;;
45033;SDS011;30771;47.988;-4.186;2023-06-10T10:26:48;9.50;;;1.30;;
45033;SDS011;30771;47.988;-4.186;2023-06-10T10:29:16;6.30;;;1.33;;
45033;SDS011;30771;47.988;-4.186;2023-06-10T10:31:47;4.50;;;1.27;;
45033;SDS011;30771;47.988;-4.186;2023-06-10T10:34:15;6.68;;;1.20;;
45033;SDS011;30771;47.988;-4.186;2023-06-10T10:36:44;5.20;;;1.40;;
45033;SDS011;30771;47.988;-4.186;2023-06-10T10:39:10;6.32;;;1.35;;
45033;SDS011;30771;47.988;-4.186;2023-06-10T10:41:36;2.92;;;1.17;;
45033;SDS011;30771;47.988;-4.186;2023-06-10T10:44:03;4.15;;;1.35;;
45033;SDS011;30771;47.988;-4.186;2023-06-10T10:46:31;3.30;;;1.17;;
45033;SDS011;30771;47.988;-4.186;2023-06-10T10:49:07;3.42;;;1.20;;
45033;SDS011;30771;47.988;-4.186;2023-06-10T10:51:35;3.95;;;1.05;;
45033;SDS011;30771;47.988;-4.186;2023-06-10T10:54:13;4.28;;;1.40;;
45033;SDS011;30771;47.988;-4.186;2023-06-10T10:56:39;5.93;;;1.40;;
45033;SDS011;30771;47.988;-4.186;2023-06-10T10:59:04;3.10;;;1.27;;
45033;SDS011;30771;47.988;-4.186;2023-06-10T11:01:40;3.65;;;0.95;;
45033;SDS011;30771;47.988;-4.186;2023-06-10T11:04:06;4.55;;;1.10;;
45033;SDS011;30771;47.988;-4.186;2023-06-10T11:06:33;3.38;;;1.20;;
45033;SDS011;30771;47.988;-4.186;2023-06-10T11:08:58;3.53;;;1.17;;
45033;SDS011;30771;47.988;-4.186;2023-06-10T11:11:24;5.13;;;1.42;;
45033;SDS011;30771;47.988;-4.186;2023-06-10T11:16:28;4.15;;;1.40;;
45033;SDS011;30771;47.988;-4.186;2023-06-10T11:18:54;6.05;;;1.60;;
45033;SDS011;30771;47.988;-4.186;2023-06-10T11:21:20;5.68;;;1.40;;
45033;SDS011;30771;47.988;-4.186;2023-06-10T11:23:45;4.00;;;1.20;;
45033;SDS011;30771;47.988;-4.186;2023-06-10T11:26:15;4.40;;;1.45;;
45033;SDS011;30771;47.988;-4.186;2023-06-10T11:28:41;4.05;;;1.60;;
45033;SDS011;30771;47.988;-4.186;2023-06-10T11:31:07;4.45;;;1.42;;
45033;SDS011;30771;47.988;-4.186;2023-06-10T11:33:34;6.07;;;2.00;;
45033;SDS011;30771;47.988;-4.186;2023-06-10T11:36:06;5.38;;;1.48;;
45033;SDS011;30771;47.988;-4.186;2023-06-10T11:38:32;6.18;;;2.00;;
45033;SDS011;30771;47.988;-4.186;2023-06-10T11:40:57;7.30;;;1.80;;
45033;SDS011;30771;47.988;-4.186;2023-06-10T11:43:23;4.90;;;1.70;;
45033;SDS011;30771;47.988;-4.186;2023-06-10T11:45:53;5.90;;;1.73;;
45033;SDS011;30771;47.988;-4.186;2023-06-10T11:48:19;5.25;;;2.05;;
45033;SDS011;30771;47.988;-4.186;2023-06-10T11:50:44;5.50;;;1.70;;
45033;SDS011;30771;47.988;-4.186;2023-06-10T11:53:09;5.10;;;1.75;;
45033;SDS011;30771;47.988;-4.186;2023-06-10T11:58:17;3.50;;;1.75;;
45033;SDS011;30771;47.988;-4.186;2023-06-10T12:00:48;6.53;;;1.58;;
45033;SDS011;30771;47.988;-4.186;2023-06-10T12:03:17;6.07;;;1.65;;
45033;SDS011;30771;47.988;-4.186;2023-06-10T12:05:55;7.30;;;1.75;;
45033;SDS011;30771;47.988;-4.186;2023-06-10T12:08:21;6.40;;;1.65;;
45033;SDS011;30771;47.988;-4.186;2023-06-10T12:10:46;6.50;;;1.92;;
45033;SDS011;30771;47.988;-4.186;2023-06-10T12:13:12;4.85;;;1.33;;
45033;SDS011;30771;47.988;-4.186;2023-06-10T12:15:37;6.13;;;1.48;;
45033;SDS011;30771;47.988;-4.186;2023-06-10T12:18:02;6.00;;;1.50;;
45033;SDS011;30771;47.988;-4.186;2023-06-10T12:20:31;3.67;;;1.30;;
45033;SDS011;30771;47.988;-4.186;2023-06-10T12:22:57;4.15;;;1.33;;
45033;SDS011;30771;47.988;-4.186;2023-06-10T12:25:26;6.18;;;1.73;;
45033;SDS011;30771;47.988;-4.186;2023-06-10T12:27:53;4.93;;;1.70;;
45033;SDS011;30771;47.988;-4.186;2023-06-10T12:30:19;5.50;;;1.73;;
45033;SDS011;30771;47.988;-4.186;2023-06-10T12:32:46;7.10;;;1.50;;
45033;SDS011;30771;47.988;-4.186;2023-06-10T12:35:16;5.50;;;1.50;;
45033;SDS011;30771;47.988;-4.186;2023-06-10T12:37:43;7.28;;;1.42;;
45033;SDS011;30771;47.988;-4.186;2023-06-10T12:40:25;6.45;;;1.88;;
45033;SDS011;30771;47.988;-4.186;2023-06-10T12:42:53;5.40;;;1.48;;
45033;SDS011;30771;47.988;-4.186;2023-06-10T12:45:40;6.47;;;1.58;;
45033;SDS011;30771;47.988;-4.186;2023-06-10T12:48:09;3.85;;;1.52;;
45033;SDS011;30771;47.988;-4.186;2023-06-10T12:50:38;4.43;;;1.27;;
45033;SDS011;30771;47.988;-4.186;2023-06-10T12:53:05;5.70;;;1.45;;
45033;SDS011;30771;47.988;-4.186;2023-06-10T12:55:31;5.68;;;1.30;;
45033;SDS011;30771;47.988;-4.186;2023-06-10T12:57:57;5.20;;;1.50;;
45033;SDS011;30771;47.988;-4.186;2023-06-10T13:00:23;4.75;;;1.40;;
45033;SDS011;30771;47.988;-4.186;2023-06-10T13:02:49;2.88;;;1.13;;
45033;SDS011;30771;47.988;-4.186;2023-06-10T13:05:14;4.28;;;1.30;;
45033;SDS011;30771;47.988;-4.186;2023-06-10T13:07:39;4.00;;;1.20;;
45033;SDS011;30771;47.988;-4.186;2023-06-10T13:10:04;4.03;;;1.20;;
45033;SDS011;30771;47.988;-4.186;2023-06-10T13:12:30;5.25;;;1.08;;
45033;SDS011;30771;47.988;-4.186;2023-06-10T13:14:55;4.30;;;1.13;;
45033;SDS011;30771;47.988;-4.186;2023-06-10T13:17:21;7.60;;;1.45;;
45033;SDS011;30771;47.988;-4.186;2023-06-10T13:19:46;6.50;;;1.30;;
45033;SDS011;30771;47.988;-4.186;2023-06-10T13:22:11;3.13;;;1.27;;
45033;SDS011;30771;47.988;-4.186;2023-06-10T13:24:39;6.30;;;1.83;;
45033;SDS011;30771;47.988;-4.186;2023-06-10T13:27:05;5.25;;;1.17;;
45033;SDS011;30771;47.988;-4.186;2023-06-10T13:29:30;3.03;;;1.15;;
45033;SDS011;30771;47.988;-4.186;2023-06-10T13:31:55;2.88;;;1.10;;
45033;SDS011;30771;47.988;-4.186;2023-06-10T13:34:21;4.32;;;1.55;;
45033;SDS011;30771;47.988;-4.186;2023-06-10T13:36:46;5.20;;;1.27;;
45033;SDS011;30771;47.988;-4.186;2023-06-10T13:39:11;6.00;;;1.05;;
45033;SDS011;30771;47.988;-4.186;2023-06-10T13:41:36;4.28;;;1.20;;
45033;SDS011;30771;47.988;-4.186;2023-06-10T13:44:02;4.70;;;1.30;;
45033;SDS011;30771;47.988;-4.186;2023-06-10T13:46:27;3.92;;;1.15;;
45033;SDS011;30771;47.988;-4.186;2023-06-10T13:48:52;3.65;;;1.27;;
45033;SDS011;30771;47.988;-4.186;2023-06-10T13:51:18;4.53;;;1.13;;
45033;SDS011;30771;47.988;-4.186;2023-06-10T13:53:43;4.45;;;1.10;;
45033;SDS011;30771;47.988;-4.186;2023-06-10T13:56:08;4.22;;;1.17;;
45033;SDS011;30771;47.988;-4.186;2023-06-10T13:58:33;5.30;;;1.10;;
45033;SDS011;30771;47.988;-4.186;2023-06-10T14:00:59;6.30;;;1.27;;
45033;SDS011;30771;47.988;-4.186;2023-06-10T14:03:24;4.90;;;1.38;;
45033;SDS011;30771;47.988;-4.186;2023-06-10T14:05:49;8.52;;;1.50;;
45033;SDS011;30771;47.988;-4.186;2023-06-10T14:08:14;4.50;;;1.70;;
45033;SDS011;30771;47.988;-4.186;2023-06-10T14:10:40;2.67;;;0.98;;
45033;SDS011;30771;47.988;-4.186;2023-06-10T14:13:05;5.20;;;1.48;;
45033;SDS011;30771;47.988;-4.186;2023-06-10T14:15:30;5.15;;;1.30;;
45033;SDS011;30771;47.988;-4.186;2023-06-10T14:17:56;5.72;;;1.40;;
45033;SDS011;30771;47.988;-4.186;2023-06-10T14:20:21;4.70;;;1.30;;
45033;SDS011;30771;47.988;-4.186;2023-06-10T14:22:46;3.53;;;1.20;;
45033;SDS011;30771;47.988;-4.186;2023-06-10T14:25:11;3.83;;;1.10;;
45033;SDS011;30771;47.988;-4.186;2023-06-10T14:27:37;5.40;;;1.13;;
45033;SDS011;30771;47.988;-4.186;2023-06-10T14:30:02;4.50;;;1.30;;
45033;SDS011;30771;47.988;-4.186;2023-06-10T14:32:27;5.57;;;1.48;;
45033;SDS011;30771;47.988;-4.186;2023-06-10T14:34:53;4.20;;;1.20;;
45033;SDS011;30771;47.988;-4.186;2023-06-10T14:37:18;6.32;;;1.42;;
45033;SDS011;30771;47.988;-4.186;2023-06-10T14:39:43;4.47;;;1.50;;
45033;SDS011;30771;47.988;-4.186;2023-06-10T14:42:08;6.63;;;1.80;;
45033;SDS011;30771;47.988;-4.186;2023-06-10T14:44:34;5.53;;;1.20;;
45033;SDS011;30771;47.988;-4.186;2023-06-10T14:46:59;12.82;;;2.22;;
45033;SDS011;30771;47.988;-4.186;2023-06-10T14:49:24;8.48;;;1.70;;
45033;SDS011;30771;47.988;-4.186;2023-06-10T14:51:50;6.68;;;1.20;;
45033;SDS011;30771;47.988;-4.186;2023-06-10T14:54:15;4.35;;;1.60;;
45033;SDS011;30771;47.988;-4.186;2023-06-10T14:56:40;4.72;;;1.52;;
45033;SDS011;30771;47.988;-4.186;2023-06-10T14:59:06;5.30;;;1.70;;
45033;SDS011;30771;47.988;-4.186;2023-06-10T15:01:31;8.63;;;2.20;;
45033;SDS011;30771;47.988;-4.186;2023-06-10T15:03:57;5.05;;;1.58;;
45033;SDS011;30771;47.988;-4.186;2023-06-10T15:06:22;6.55;;;1.88;;
45033;SDS011;30771;47.988;-4.186;2023-06-10T15:08:47;5.30;;;1.60;;
45033;SDS011;30771;47.988;-4.186;2023-06-10T15:11:12;4.15;;;1.20;;
45033;SDS011;30771;47.988;-4.186;2023-06-10T15:13:38;6.18;;;1.95;;
45033;SDS011;30771;47.988;-4.186;2023-06-10T15:16:03;5.55;;;1.67;;
45033;SDS011;30771;47.988;-4.186;2023-06-10T15:18:28;5.88;;;1.88;;
45033;SDS011;30771;47.988;-4.186;2023-06-10T15:20:54;6.07;;;1.70;;
45033;SDS011;30771;47.988;-4.186;2023-06-10T15:23:19;5.32;;;1.80;;
45033;SDS011;30771;47.988;-4.186;2023-06-10T15:25:44;6.65;;;1.70;;
45033;SDS011;30771;47.988;-4.186;2023-06-10T15:28:09;7.93;;;1.90;;
45033;SDS011;30771;47.988;-4.186;2023-06-10T15:30:35;8.40;;;2.05;;
45033;SDS011;30771;47.988;-4.186;2023-06-10T15:33:00;8.40;;;2.17;;
45033;SDS011;30771;47.988;-4.186;2023-06-10T15:35:25;5.85;;;1.77;;
45033;SDS011;30771;47.988;-4.186;2023-06-10T15:37:50;8.30;;;1.90;;
45033;SDS011;30771;47.988;-4.186;2023-06-10T15:40:16;6.00;;;2.17;;
45033;SDS011;30771;47.988;-4.186;2023-06-10T15:42:41;7.60;;;1.67;;
45033;SDS011;30771;47.988;-4.186;2023-06-10T15:45:06;5.72;;;1.95;;
45033;SDS011;30771;47.988;-4.186;2023-06-10T15:47:32;6.63;;;1.80;;
45033;SDS011;30771;47.988;-4.186;2023-06-10T15:49:57;9.80;;;2.03;;
45033;SDS011;30771;47.988;-4.186;2023-06-10T15:52:22;8.27;;;2.05;;
45033;SDS011;30771;47.988;-4.186;2023-06-10T15:54:47;5.70;;;1.83;;
45033;SDS011;30771;47.988;-4.186;2023-06-10T15:57:13;7.00;;;1.90;;
45033;SDS011;30771;47.988;-4.186;2023-06-10T15:59:38;5.00;;;1.63;;
45033;SDS011;30771;47.988;-4.186;2023-06-10T16:02:03;6.18;;;1.80;;
45033;SDS011;30771;47.988;-4.186;2023-06-10T16:04:29;5.85;;;1.77;;
45033;SDS011;30771;47.988;-4.186;2023-06-10T16:06:54;7.72;;;2.13;;
45033;SDS011;30771;47.988;-4.186;2023-06-10T16:09:19;5.05;;;2.08;;
45033;SDS011;30771;47.988;-4.186;2023-06-10T16:11:45;9.27;;;1.98;;
45033;SDS011;30771;47.988;-4.186;2023-06-10T16:14:10;6.40;;;1.92;;
45033;SDS011;30771;47.988;-4.186;2023-06-10T16:16:35;6.88;;;2.03;;
45033;SDS011;30771;47.988;-4.186;2023-06-10T16:19:00;7.68;;;2.10;;
45033;SDS011;30771;47.988;-4.186;2023-06-10T16:21:26;6.57;;;2.13;;
45033;SDS011;30771;47.988;-4.186;2023-06-10T16:23:51;8.23;;;2.40;;
45033;SDS011;30771;47.988;-4.186;2023-06-10T16:26:16;6.22;;;1.95;;
45033;SDS011;30771;47.988;-4.186;2023-06-10T16:28:42;5.97;;;2.20;;
45033;SDS011;30771;47.988;-4.186;2023-06-10T16:31:07;7.18;;;2.28;;
45033;SDS011;30771;47.988;-4.186;2023-06-10T16:33:32;8.68;;;2.20;;
45033;SDS011;30771;47.988;-4.186;2023-06-10T16:35:57;7.78;;;2.15;;
45033;SDS011;30771;47.988;-4.186;2023-06-10T16:38:23;9.27;;;2.10;;
45033;SDS011;30771;47.988;-4.186;2023-06-10T16:40:48;6.43;;;1.80;;
45033;SDS011;30771;47.988;-4.186;2023-06-10T16:43:13;9.05;;;2.25;;
45033;SDS011;30771;47.988;-4.186;2023-06-10T16:45:39;7.55;;;2.10;;
45033;SDS011;30771;47.988;-4.186;2023-06-10T16:48:04;7.30;;;1.90;;
45033;SDS011;30771;47.988;-4.186;2023-06-10T16:50:29;7.38;;;1.95;;
45033;SDS011;30771;47.988;-4.186;2023-06-10T16:52:55;7.20;;;1.83;;
45033;SDS011;30771;47.988;-4.186;2023-06-10T16:55:20;8.48;;;2.20;;
45033;SDS011;30771;47.988;-4.186;2023-06-10T16:57:45;8.02;;;2.20;;
45033;SDS011;30771;47.988;-4.186;2023-06-10T17:00:11;7.55;;;2.03;;
45033;SDS011;30771;47.988;-4.186;2023-06-10T17:02:36;8.63;;;2.00;;
45033;SDS011;30771;47.988;-4.186;2023-06-10T17:05:01;8.15;;;2.00;;
45033;SDS011;30771;47.988;-4.186;2023-06-10T17:07:27;11.93;;;2.40;;
45033;SDS011;30771;47.988;-4.186;2023-06-10T17:09:52;12.63;;;2.17;;
45033;SDS011;30771;47.988;-4.186;2023-06-10T17:12:17;12.50;;;2.33;;
45033;SDS011;30771;47.988;-4.186;2023-06-10T17:14:43;7.20;;;2.05;;
45033;SDS011;30771;47.988;-4.186;2023-06-10T17:17:08;8.65;;;2.17;;
45033;SDS011;30771;47.988;-4.186;2023-06-10T17:19:33;9.45;;;2.20;;
45033;SDS011;30771;47.988;-4.186;2023-06-10T17:21:58;7.10;;;2.30;;
45033;SDS011;30771;47.988;-4.186;2023-06-10T17:24:24;6.35;;;1.85;;
45033;SDS011;30771;47.988;-4.186;2023-06-10T17:26:49;7.25;;;2.00;;
45033;SDS011;30771;47.988;-4.186;2023-06-10T17:29:15;6.28;;;2.10;;
45033;SDS011;30771;47.988;-4.186;2023-06-10T17:31:40;6.28;;;1.90;;
45033;SDS011;30771;47.988;-4.186;2023-06-10T17:34:06;4.43;;;2.05;;
45033;SDS011;30771;47.988;-4.186;2023-06-10T17:36:31;8.45;;;1.95;;
45033;SDS011;30771;47.988;-4.186;2023-06-10T17:38:56;8.85;;;3.53;;
45033;SDS011;30771;47.988;-4.186;2023-06-10T17:41:22;8.40;;;2.42;;
45033;SDS011;30771;47.988;-4.186;2023-06-10T17:43:47;8.30;;;3.70;;
45033;SDS011;30771;47.988;-4.186;2023-06-10T17:46:12;7.63;;;2.67;;
45033;SDS011;30771;47.988;-4.186;2023-06-10T17:48:38;6.97;;;3.53;;
45033;SDS011;30771;47.988;-4.186;2023-06-10T17:51:04;8.63;;;2.50;;
45033;SDS011;30771;47.988;-4.186;2023-06-10T17:53:29;10.23;;;3.03;;
45033;SDS011;30771;47.988;-4.186;2023-06-10T17:55:55;9.80;;;3.03;;
45033;SDS011;30771;47.988;-4.186;2023-06-10T17:58:20;16.92;;;8.93;;
45033;SDS011;30771;47.988;-4.186;2023-06-10T18:00:45;4.97;;;1.95;;
45033;SDS011;30771;47.988;-4.186;2023-06-10T18:03:11;6.85;;;2.03;;
45033;SDS011;30771;47.988;-4.186;2023-06-10T18:05:36;5.47;;;1.92;;
45033;SDS011;30771;47.988;-4.186;2023-06-10T18:08:01;10.20;;;2.10;;
45033;SDS011;30771;47.988;-4.186;2023-06-10T18:10:26;7.60;;;2.25;;
45033;SDS011;30771;47.988;-4.186;2023-06-10T18:12:52;7.55;;;2.08;;
45033;SDS011;30771;47.988;-4.186;2023-06-10T18:15:17;6.25;;;1.77;;
45033;SDS011;30771;47.988;-4.186;2023-06-10T18:17:42;5.63;;;1.77;;
45033;SDS011;30771;47.988;-4.186;2023-06-10T18:20:08;7.75;;;2.33;;
45033;SDS011;30771;47.988;-4.186;2023-06-10T18:22:33;8.02;;;2.20;;
45033;SDS011;30771;47.988;-4.186;2023-06-10T18:24:59;7.25;;;2.17;;
45033;SDS011;30771;47.988;-4.186;2023-06-10T18:27:24;6.85;;;2.33;;
45033;SDS011;30771;47.988;-4.186;2023-06-10T18:29:49;5.07;;;1.70;;
45033;SDS011;30771;47.988;-4.186;2023-06-10T18:32:15;7.60;;;1.80;;
45033;SDS011;30771;47.988;-4.186;2023-06-10T18:34:40;6.78;;;1.80;;
45033;SDS011;30771;47.988;-4.186;2023-06-10T18:37:06;6.82;;;2.15;;
45033;SDS011;30771;47.988;-4.186;2023-06-10T18:39:32;6.40;;;1.80;;
45033;SDS011;30771;47.988;-4.186;2023-06-10T18:41:58;7.38;;;2.63;;
45033;SDS011;30771;47.988;-4.186;2023-06-10T18:44:24;8.50;;;2.33;;
45033;SDS011;30771;47.988;-4.186;2023-06-10T18:46:49;7.22;;;1.80;;
45033;SDS011;30771;47.988;-4.186;2023-06-10T18:49:14;4.82;;;1.70;;
45033;SDS011;30771;47.988;-4.186;2023-06-10T18:51:39;7.97;;;2.25;;
45033;SDS011;30771;47.988;-4.186;2023-06-10T18:54:05;9.32;;;3.65;;
45033;SDS011;30771;47.988;-4.186;2023-06-10T18:56:30;6.45;;;2.03;;
45033;SDS011;30771;47.988;-4.186;2023-06-10T18:58:55;8.23;;;2.70;;
45033;SDS011;30771;47.988;-4.186;2023-06-10T19:01:20;6.28;;;2.00;;
45033;SDS011;30771;47.988;-4.186;2023-06-10T19:03:46;9.50;;;2.33;;
45033;SDS011;30771;47.988;-4.186;2023-06-10T19:06:12;7.38;;;2.47;;
45033;SDS011;30771;47.988;-4.186;2023-06-10T19:08:38;7.75;;;2.30;;
45033;SDS011;30771;47.988;-4.186;2023-06-10T19:11:03;7.55;;;2.38;;
45033;SDS011;30771;47.988;-4.186;2023-06-10T19:13:28;7.72;;;2.00;;
45033;SDS011;30771;47.988;-4.186;2023-06-10T19:15:54;11.63;;;2.58;;
45033;SDS011;30771;47.988;-4.186;2023-06-10T19:18:19;11.00;;;2.30;;
45033;SDS011;30771;47.988;-4.186;2023-06-10T19:20:44;7.28;;;2.42;;
45033;SDS011;30771;47.988;-4.186;2023-06-10T19:23:10;11.02;;;2.80;;
45033;SDS011;30771;47.988;-4.186;2023-06-10T19:25:35;10.85;;;2.92;;
45033;SDS011;30771;47.988;-4.186;2023-06-10T19:28:01;10.25;;;2.83;;
45033;SDS011;30771;47.988;-4.186;2023-06-10T19:30:26;10.63;;;3.08;;
45033;SDS011;30771;47.988;-4.186;2023-06-10T19:32:52;8.40;;;2.75;;
45033;SDS011;30771;47.988;-4.186;2023-06-10T19:35:17;12.63;;;3.58;;
45033;SDS011;30771;47.988;-4.186;2023-06-10T19:37:42;9.70;;;3.13;;
45033;SDS011;30771;47.988;-4.186;2023-06-10T19:40:08;11.57;;;3.20;;
45033;SDS011;30771;47.988;-4.186;2023-06-10T19:42:33;10.18;;;3.45;;
45033;SDS011;30771;47.988;-4.186;2023-06-10T19:44:58;9.18;;;3.20;;
45033;SDS011;30771;47.988;-4.186;2023-06-10T19:47:24;11.25;;;3.30;;
45033;SDS011;30771;47.988;-4.186;2023-06-10T19:49:49;10.73;;;3.20;;
45033;SDS011;30771;47.988;-4.186;2023-06-10T19:52:14;13.45;;;3.70;;
45033;SDS011;30771;47.988;-4.186;2023-06-10T19:54:39;12.52;;;3.55;;
45033;SDS011;30771;47.988;-4.186;2023-06-10T19:57:05;11.43;;;3.35;;
45033;SDS011;30771;47.988;-4.186;2023-06-10T19:59:31;14.63;;;3.88;;
45033;SDS011;30771;47.988;-4.186;2023-06-10T20:01:57;14.63;;;4.03;;
45033;SDS011;30771;47.988;-4.186;2023-06-10T20:04:23;11.93;;;3.65;;
45033;SDS011;30771;47.988;-4.186;2023-06-10T20:06:48;10.35;;;3.35;;
45033;SDS011;30771;47.988;-4.186;2023-06-10T20:09:14;8.75;;;3.30;;
45033;SDS011;30771;47.988;-4.186;2023-06-10T20:11:39;10.90;;;3.78;;
45033;SDS011;30771;47.988;-4.186;2023-06-10T20:14:04;12.52;;;3.85;;
45033;SDS011;30771;47.988;-4.186;2023-06-10T20:16:30;13.65;;;3.90;;
45033;SDS011;30771;47.988;-4.186;2023-06-10T20:18:55;12.73;;;4.40;;
45033;SDS011;30771;47.988;-4.186;2023-06-10T20:21:20;10.50;;;3.65;;
45033;SDS011;30771;47.988;-4.186;2023-06-10T20:23:45;13.82;;;4.10;;
45033;SDS011;30771;47.988;-4.186;2023-06-10T20:26:11;9.57;;;3.90;;
45033;SDS011;30771;47.988;-4.186;2023-06-10T20:28:36;11.25;;;4.15;;
45033;SDS011;30771;47.988;-4.186;2023-06-10T20:31:02;13.88;;;3.92;;
45033;SDS011;30771;47.988;-4.186;2023-06-10T20:33:27;16.13;;;4.53;;
45033;SDS011;30771;47.988;-4.186;2023-06-10T20:35:52;12.25;;;4.20;;